ADDS METAR Data INFO
IDs: Format: Raw Decoded Include TAF

Data at: 0252 UTC 21 Jan 2018

KAST 210155Z AUTO 18014G27KT 10SM FEW026 SCT050 BKN075 09/06 A3000 RMK AO2 PK WND 17027/0149 RAB18E27 SLP157 P0000 T00940056
KAST 210055Z AUTO 19016G23KT 10SM FEW024 SCT080 BKN110 09/06 A3001 RMK AO2 CIG 080 RWY 08 SLP162 T00940056
KAST 202355Z AUTO 19011G22KT 10SM FEW027 FEW041 BKN065 09/07 A3002 RMK AO2 RAB00E35 SLP165 P0001 60004 T00940067 10100 20083 56005
KAST 202255Z AUTO 18014G21KT 10SM FEW036 OVC060 09/06 A3002 RMK AO2 SLP167 T00940061
KAST 202155Z AUTO 19010G16KT 10SM BKN050 OVC060 10/07 A3002 RMK AO2 SLP165 T01000067
KAST 202140Z AUTO 20015G23KT 10SM FEW020 SCT027 OVC050 10/07 A3002 RMK AO2 T01000067
KAST 202112Z AUTO 20008KT 10SM SCT020 BKN025 OVC047 09/07 A3003 RMK AO2 T00940072
KAST 202055Z AUTO 18008KT 10SM SCT024 BKN032 OVC045 09/07 A3003 RMK AO2 RAB37E48 SLP170 P0001 60003 T00940067 58008
KAST 201955Z AUTO 20008KT 10SM SCT033 OVC045 09/07 A3005 RMK AO2 SLP176 T00940067
KAST 201855Z AUTO 21008G15KT 10SM FEW021 SCT033 BKN050 09/07 A3007 RMK AO2 RAB1757E38 SLP181 P0002 T00890067
KAST 201811Z AUTO 21012G22KT 7SM -RA FEW021 BKN041 OVC049 08/07 A3006 RMK AO2 RAB1757 P0001 T00830067
KAST 201755Z AUTO 21010G18KT 10SM SCT019 BKN025 OVC048 09/07 A3006 RMK AO2 RAE52 CIG 019 RWY 08 SLP178 P0002 60013 T00890072 10089 20061 53004
KAST 201705Z AUTO 13005KT 3SM -RA BR FEW014 BKN022 OVC040 07/06 A3005 RMK AO2 P0002 T00670056
KAST 201655Z AUTO 09005KT 6SM -RA BR FEW019 SCT024 OVC037 07/06 A3005 RMK AO2 CIG 027 RWY 08 SLP174 P0003 T00720056
KAST 201632Z AUTO 18005KT 5SM -RA BR FEW016 BKN037 OVC050 07/06 A3005 RMK AO2 P0001 T00720056
KAST 201555Z AUTO 13003KT 10SM -RA SCT019 BKN024 OVC033 07/05 A3004 RMK AO2 SLP173 P0004 T00670050
KAST 201547Z AUTO 12003KT 6SM -RA BR FEW018 BKN023 OVC036 07/06 A3005 RMK AO2 P0004 T00670056
KAST 201455Z AUTO 21006KT 9SM -RA SCT031 OVC046 07/05 A3005 RMK AO2 RAE15B51 SLP175 P0000 60004 T00670050 51007
KAST 201355Z AUTO 24011G19KT 10SM -RA FEW020 BKN037 OVC044 07/04 A3005 RMK AO2 RAB14 SLP175 P0004 T00670039
KAST 201255Z AUTO 22006KT 10SM OVC085 08/03 A3003 RMK AO2 SLP170 T00830033
KAST 201155Z AUTO 21007KT 10SM FEW042 FEW060 OVC090 08/03 A3003 RMK AO2 SLP168 60000 70044 T00780033 10078 20067 51006
KAST 201055Z AUTO 23005KT 10SM SCT037 BKN050 OVC080 08/03 A3003 RMK AO2 SLP167 T00780028
KAST 200955Z AUTO 24007KT 10SM FEW039 FEW065 OVC090 07/02 A3002 RMK AO2 SLP165 T00720022
KAST 200855Z AUTO 25009KT 10SM FEW030 SCT047 BKN060 07/02 A3001 RMK AO2 RAB01E21 SLP162 P0000 60000 T00720017 51009
KAST 200755Z AUTO 26011KT 10SM FEW019 BKN039 OVC049 07/04 A3000 RMK AO2 RAB32E47 SLP159 P0000 T00670039 400940044
KAST 200655Z AUTO 22005KT 9SM FEW034 BKN044 BKN055 07/05 A2999 RMK AO2 RAE09 SLP156 P0000 T00720050
KAST 200555Z AUTO 24006KT 10SM -RA FEW029 BKN041 OVC050 07/05 A2998 RMK AO2 SLP153 P0007 60024 T00720050 10083 20067 51016
KAST 200455Z AUTO 26010KT 9SM -RA FEW024 BKN039 OVC060 07/05 A2998 RMK AO2 RAE21B52 SLP150 P0000 T00720050
KAST 200355Z AUTO 23007KT 10SM -RA FEW019 OVC040 07/06 A2996 RMK AO2 SLP144 P0005 T00720056
KAST 200324Z AUTO 27008KT 6SM -RA BR FEW018 SCT026 OVC036 07/06 A2995 RMK AO2 P0004 T00720056
KAST 200310Z AUTO 27011KT 6SM -RA BR FEW014 BKN026 OVC031 07/06 A2995 RMK AO2 P0002 T00720056
KAST 200255Z AUTO 25007KT 9SM -RA FEW026 BKN034 OVC042 07/06 A2994 RMK AO2 SLP137 P0010 60012 T00720056 53005
KAST 200234Z AUTO 22007KT 10SM -RA FEW018 BKN032 OVC042 07/06 A2993 RMK AO2 P0007 T00720061
KAST 200212Z AUTO 26008KT 8SM -RA SCT019 BKN026 OVC035 07/06 A2993 RMK AO2 P0001 T00720056
KAST 200155Z AUTO 21007KT 10SM -RA SCT020 BKN036 OVC047 08/06 A2993 RMK AO2 SLP135 P0002 T00780061
KAST 200055Z AUTO 21009KT 10SM -RA FEW020 BKN033 OVC041 08/06 A2992 RMK AO2 RAE2357B49 SLP132 P0000 T00830061
KAST 192355Z AUTO 21009KT 9SM -RA SCT024 BKN032 OVC050 08/06 A2992 RMK AO2 SLP132 P0006 60011 T00830061 10094 20072 53003
KAST 192332Z AUTO 21008KT 6SM -RA BR FEW019 BKN032 OVC047 08/06 A2991 RMK AO2 P0005 T00830061
KAST 192255Z AUTO 20009G20KT 7SM -RA SCT022 BKN028 OVC035 08/06 A2991 RMK AO2 RAB10 CIG 021 RWY 08 SLP128 P0002 T00780056
KAST 192155Z AUTO 20012G19KT 10SM FEW024 BKN029 OVC060 09/06 A2990 RMK AO2 RAE13 SLP126 P0000 T00890056
KAST 192055Z AUTO 19010G19KT 9SM -RA SCT025 BKN032 OVC060 08/06 A2991 RMK AO2 RAB55 SLP129 P0000 60003 T00830056 50006
KAST 192048Z AUTO 19013G21KT 10SM BKN025 BKN032 OVC060 09/06 A2991 RMK AO2 T00890056
KAST 191955Z AUTO 18009KT 10SM FEW026 BKN041 OVC055 08/06 A2991 RMK AO2 RAE01B10E36 SLP129 P0002 T00830061
KAST 191932Z AUTO 19009KT 10SM -RA SCT023 BKN032 OVC039 08/06 A2992 RMK AO2 RAE01B10 P0002 T00780056
KAST 191902Z AUTO 17008G18KT 10SM FEW021 BKN027 OVC050 08/06 A2991 RMK AO2 RAE01 P0000 T00830056
KAST 191855Z AUTO 18014G18KT 6SM -RA BR FEW021 BKN038 OVC060 08/06 A2991 RMK AO2 RAB11E21B40 CIG 023 RWY 08 SLP127 P0001 T00780056
KAST 191755Z AUTO 17008KT 10SM FEW033 07/06 A2989 RMK AO2 SLP123 60009 T00720056 10072 20050 51014
KAST 191727Z AUTO 17010KT 10SM FEW026 BKN033 OVC060 07/05 A2989 RMK AO2 T00670050
KAST 191702Z AUTO 16007KT 10SM FEW020 BKN027 OVC060 07/05 A2988 RMK AO2 T00670050
KAST 191655Z AUTO 17008KT 10SM SCT022 BKN030 OVC041 07/05 A2988 RMK AO2 RAB29E46 SLP117 P0001 T00670050
KAST 191651Z AUTO 17008KT 10SM SCT022 BKN032 OVC041 06/05 A2988 RMK AO2 RAB29E46 CIG 027 RWY 08 P0001
KAST 191644Z AUTO 16004KT 10SM -RA BKN021 BKN037 OVC055 06/05 A2987 RMK AO2 RAB29 P0001 T00610050
KAST 191555Z AUTO 15008KT 10SM FEW019 BKN042 OVC050 06/04 A2985 RMK AO2 RAE29 SLP109 P0003 T00560039
KAST 191531Z AUTO 16007KT 10SM SCT021 BKN030 OVC055 06/04 A2985 RMK AO2 RAE29 CIG 024 RWY 08 P0003 T00560039
KAST 191455Z AUTO 18004KT 4SM RA BR BKN023 BKN032 OVC050 06/04 A2985 RMK AO2 RAB24 SLP108 P0004 60005 T00560039 53010